< < Back
Terminal Aerodrome Forecast


Current Version              Previous Versions:   1  2  3  4  5  6  7  8  9  

Terminal Aerodrome Forecast

373
FTUS42 KMLB 021100
TAFDAB
TAF
KDAB 021137Z 0212/0312 VRB02KT P6SM VCSH FEW020 SCT080
     FM021400 05005KT P6SM SCT025 SCT150
     FM021800 05009KT P6SM SCT035 BKN250
     FM030000 05003KT P6SM FEW120 SCT250=

Latest METAR

489
SAUS80 KWBC 021200 RRC
MTRDAB
METAR KDAB 021153Z 00000KT 8SM FEW030 SCT045CB SCT150 23/23 A3002 RMK
AO2 SLP164 CB NE-SE MOV W 70005 T02330228 10244 20228
53013


USA.gov is the U.S. government's official web portal to all federal, state and local government web resources and services.